OERF

Rafha Domestic Airport

Rafha, Saudi Arabia
TAF OERF 211100Z 2112/2218 36006G16KT 7000 SKC
Issued Valid From Valid To
Jun-21 @ 11:00 UTC
(7 hours ago)
Jun-21 @ 12:00 UTC
(6 hours ago)
Jun-22 @ 18:00 UTC
(in 24 hours)
Jun-21 @ 12:00 to Jun-22 @ 18:00
TAF OERF 211100Z 2112/2218 36006G16KT 7000 SKC
Wind Visibility Clouds
360° at 6 knots
 Gusting to 16 knots
7,001 meters
  • Clear skies
TAF OERF 211100Z 2112/2218 36006G16KT 7000 SKC
Issued Jun-21 @ 11:00 UTC
(7 hours ago)
Valid From Jun-21 @ 12:00 UTC
(6 hours ago)
Valid To Jun-22 @ 18:00 UTC
(in 24 hours)
Jun-21 @ 12:00 - Jun-22 @ 18:00
Wind Visibility
360° at 6 knots
 Gusting to 16 knots
7,001 meters
Clouds
  • Clear skies